Time;durP1;ratioP1;P1;durP2;ratioP2;P2;SDS_P1;SDS_P2;PMS_P1;PMS_P2;Temp;Humidity;BMP_temperature;BMP_pressure;BME280_temperature;BME280_humidity;BME280_pressure;Samples;Min_cycle;Max_cycle;Signal;HPM_P1;HPM_P2
2023/05/30 00:00:28;;;;;;;13.00;5.53;;;;;;;6.46;60.15;100152.96;1769638;79;20975;-64
2023/05/30 00:02:57;;;;;;;13.43;4.70;;;;;;;6.40;60.06;100151.81;1768110;79;21065;-68
2023/05/30 00:05:23;;;;;;;12.25;5.05;;;;;;;6.35;60.29;100154.11;1771509;79;21049;-67
2023/05/30 00:07:49;;;;;;;13.70;5.22;;;;;;;6.23;59.94;100152.65;1766949;79;21468;-68
2023/05/30 00:10:16;;;;;;;11.73;4.60;;;;;;;6.15;60.05;100159.75;1768987;80;21521;-65
2023/05/30 00:12:42;;;;;;;13.50;5.28;;;;;;;6.07;60.07;100157.31;1770726;78;20958;-66
2023/05/30 00:15:10;;;;;;;13.20;4.78;;;;;;;6.00;60.27;100155.76;1768327;79;21000;-63
2023/05/30 00:17:37;;;;;;;15.13;5.72;;;;;;;5.96;60.58;100154.10;1765970;79;21072;-65
2023/05/30 00:20:08;;;;;;;15.95;5.53;;;;;;;5.95;60.68;100163.63;1763876;78;21095;-62
2023/05/30 00:22:34;;;;;;;17.87;5.55;;;;;;;5.90;60.71;100161.98;1769384;79;20955;-66
2023/05/30 00:25:01;;;;;;;14.33;4.92;;;;;;;5.86;60.74;100163.80;1768339;79;20980;-65
2023/05/30 00:27:27;;;;;;;10.38;4.17;;;;;;;5.84;60.86;100161.66;1768207;79;21097;-66
2023/05/30 00:29:53;;;;;;;12.05;5.00;;;;;;;5.82;60.85;100162.13;1768322;79;20953;-65
2023/05/30 00:32:20;;;;;;;13.53;4.78;;;;;;;5.80;61.13;100157.45;1764669;79;21372;-66
2023/05/30 00:34:46;;;;;;;11.83;4.37;;;;;;;5.80;61.15;100162.63;1772885;79;20922;-66
2023/05/30 00:37:12;;;;;;;11.95;5.25;;;;;;;5.79;61.25;100163.05;1757388;79;21478;-67
2023/05/30 00:39:38;;;;;;;10.98;4.62;;;;;;;5.78;61.24;100161.80;1757379;79;21080;-66
2023/05/30 00:42:07;;;;;;;12.58;4.53;;;;;;;5.74;61.10;100162.73;1757992;79;21078;-65
2023/05/30 00:44:33;;;;;;;11.35;5.22;;;;;;;5.68;61.21;100170.19;1752552;79;21008;-66
2023/05/30 00:46:59;;;;;;;9.23;4.55;;;;;;;5.64;61.34;100163.82;1755649;79;21142;-65
2023/05/30 00:49:27;;;;;;;16.37;5.72;;;;;;;5.62;61.45;100159.95;1748534;79;21037;-64
2023/05/30 00:51:54;;;;;;;13.40;5.78;;;;;;;5.63;61.59;100159.50;1758452;79;21007;-66
2023/05/30 00:54:22;;;;;;;11.65;4.95;;;;;;;5.60;61.83;100152.23;1749191;79;21017;-66
2023/05/30 00:56:48;;;;;;;;;;;;;;;5.58;61.72;100151.39;1753926;79;20946;-65
2023/05/30 00:59:14;;;;;;;13.45;4.83;;;;;;;5.60;62.16;100156.11;1754215;79;20119;-66
2023/05/30 01:01:43;;;;;;;12.35;4.15;;;;;;;5.60;61.96;100156.11;1750064;79;21589;-65
2023/05/30 01:04:10;;;;;;;10.75;4.40;;;;;;;5.57;62.10;100152.29;1761450;79;20967;-66
2023/05/30 01:06:41;;;;;;;10.82;4.20;;;;;;;5.56;61.80;100150.56;1759332;79;21039;-66
2023/05/30 01:09:06;;;;;;;11.03;5.40;;;;;;;5.53;62.01;100155.81;1759099;79;21011;-66
2023/05/30 01:11:36;;;;;;;9.13;4.78;;;;;;;5.48;62.23;100149.86;1760910;79;21010;-65
2023/05/30 01:14:15;;;;;;;13.08;4.85;;;;;;;5.47;62.40;100153.34;1750136;79;20990;-66
2023/05/30 01:16:47;;;;;;;15.15;5.00;;;;;;;5.48;62.54;100156.34;1755011;79;20998;-65
2023/05/30 01:19:45;;;;;;;8.90;5.00;;;;;;;5.52;62.57;100154.56;1747903;79;20992;-62
2023/05/30 01:22:16;;;;;;;15.70;5.28;;;;;;;5.55;62.71;100154.05;1698941;83;21568;-65
2023/05/30 01:24:55;;;;;;;15.20;5.33;;;;;;;5.49;62.52;100159.36;1705764;81;21013;-66
2023/05/30 01:27:27;;;;;;;10.63;4.83;;;;;;;5.43;62.42;100159.45;1704140;83;21354;-66
2023/05/30 01:29:56;;;;;;;14.73;5.90;;;;;;;5.32;62.47;100158.80;1704293;82;20950;-66
2023/05/30 01:32:23;;;;;;;12.50;5.47;;;;;;;5.27;62.72;100155.47;1706073;82;20978;-65
2023/05/30 01:34:49;;;;;;;17.65;6.78;;;;;;;5.22;62.81;100155.98;1706142;82;21016;-66
2023/05/30 01:37:15;;;;;;;11.00;5.83;;;;;;;5.16;62.93;100156.51;1704790;82;21001;-66
2023/05/30 01:39:42;;;;;;;9.48;4.60;;;;;;;5.11;62.94;100160.91;1705649;82;21035;-66
2023/05/30 01:42:22;;;;;;;12.85;4.70;;;;;;;5.05;62.88;100163.61;1706572;82;21085;-65
2023/05/30 01:44:55;;;;;;;16.65;5.53;;;;;;;5.02;62.95;100164.97;1706062;82;20985;-66
2023/05/30 01:47:31;;;;;;;11.18;5.15;;;;;;;4.97;63.05;100162.89;1709277;82;20992;-66
2023/05/30 01:50:03;;;;;;;11.00;5.75;;;;;;;4.93;63.04;100169.86;1708032;82;21041;-65
2023/05/30 01:52:36;;;;;;;12.23;5.92;;;;;;;4.92;63.16;100162.11;1706823;82;21016;-66
2023/05/30 01:55:05;;;;;;;14.98;5.97;;;;;;;4.94;63.25;100165.53;1706638;82;20968;-66
2023/05/30 01:57:33;;;;;;;15.38;6.87;;;;;;;4.96;63.34;100163.78;1706095;82;20985;-66
2023/05/30 02:00:00;;;;;;;18.40;6.00;;;;;;;4.96;63.44;100163.78;1747487;79;21014;-64
2023/05/30 02:02:27;;;;;;;12.70;6.35;;;;;;;4.97;63.56;100164.63;1759815;79;20995;-66
2023/05/30 02:04:54;;;;;;;17.55;7.40;;;;;;;4.93;63.59;100156.08;1761553;78;21009;-65
2023/05/30 02:07:20;;;;;;;19.50;7.10;;;;;;;4.91;63.72;100156.53;1753845;79;21039;-66
2023/05/30 02:09:47;;;;;;;14.30;7.15;;;;;;;4.91;63.77;100160.41;1759953;79;20995;-62
2023/05/30 02:12:13;;;;;;;17.27;6.90;;;;;;;4.89;63.72;100155.25;1762031;79;20982;-67
2023/05/30 02:14:39;;;;;;;12.03;6.33;;;;;;;4.85;63.62;100161.81;1759450;79;20975;-65
2023/05/30 02:17:06;;;;;;;16.60;7.17;;;;;;;4.84;63.91;100166.56;1759311;79;20973;-66
2023/05/30 02:19:32;;;;;;;13.32;6.47;;;;;;;4.87;64.15;100161.33;1755347;79;20945;-61
2023/05/30 02:21:58;;;;;;;15.68;6.50;;;;;;;4.87;63.97;100166.50;1762672;79;21053;-66
2023/05/30 02:24:25;;;;;;;13.88;6.33;;;;;;;4.84;63.98;100169.99;1755773;79;20991;-65
2023/05/30 02:26:51;;;;;;;14.70;7.00;;;;;;;4.84;64.09;100166.56;1758382;79;20999;-64
2023/05/30 02:29:17;;;;;;;13.43;6.42;;;;;;;4.85;64.11;100169.58;1757232;79;21017;-66
2023/05/30 02:31:44;;;;;;;15.00;6.85;;;;;;;4.84;64.12;100172.58;1758488;79;21023;-65
2023/05/30 02:34:10;;;;;;;12.80;6.65;;;;;;;4.85;64.25;100174.75;1759614;79;21029;-64
2023/05/30 02:36:38;;;;;;;15.88;6.37;;;;;;;4.86;64.32;100172.57;1758606;79;21483;-63
2023/05/30 02:39:07;;;;;;;12.25;6.05;;;;;;;4.85;64.27;100170.88;1755786;79;21024;-65
2023/05/30 02:41:33;;;;;;;16.27;5.65;;;;;;;4.85;64.40;100178.64;1758188;79;20978;-65
2023/05/30 02:44:00;;;;;;;16.25;6.90;;;;;;;4.85;64.45;100169.13;1755694;79;21050;-63
2023/05/30 02:46:26;;;;;;;10.55;5.22;;;;;;;4.84;64.38;100169.14;1758660;79;21533;-65
2023/05/30 02:48:52;;;;;;;14.07;5.83;;;;;;;4.83;64.34;100175.21;1759083;79;20915;-66
2023/05/30 02:51:19;;;;;;;15.53;5.97;;;;;;;4.79;64.35;100165.77;1756564;79;21035;-65
2023/05/30 02:53:45;;;;;;;12.23;5.87;;;;;;;4.81;64.45;100175.66;1755068;79;21022;-66
2023/05/30 02:56:11;;;;;;;11.93;5.67;;;;;;;4.86;64.52;100172.57;1763139;79;21000;-66
2023/05/30 02:58:37;;;;;;;10.68;5.25;;;;;;;4.92;64.51;100182.81;1757596;79;21017;-66
2023/05/30 03:01:05;;;;;;;12.60;4.87;;;;;;;4.95;64.57;100182.76;1759035;80;21002;-66
2023/05/30 03:03:34;;;;;;;13.62;4.50;;;;;;;4.94;64.81;100181.91;1762479;79;21025;-65
2023/05/30 03:06:01;;;;;;;14.53;4.70;;;;;;;4.98;64.97;100181.41;1756148;79;21533;-65
2023/05/30 03:08:31;;;;;;;15.58;4.42;;;;;;;5.06;65.13;100178.25;1755265;79;21027;-65
2023/05/30 03:10:57;;;;;;;8.23;3.77;;;;;;;5.11;65.26;100189.38;1757126;79;21568;-63
2023/05/30 03:13:23;;;;;;;11.38;4.17;;;;;;;5.14;65.40;100186.73;1760880;80;21635;-65
2023/05/30 03:15:49;;;;;;;8.80;4.70;;;;;;;5.16;65.25;100185.43;1755294;78;21457;-65
2023/05/30 03:18:16;;;;;;;12.68;4.60;;;;;;;5.22;65.29;100189.64;1758357;79;21058;-65
2023/05/30 03:20:42;;;;;;;6.03;4.33;;;;;;;5.31;65.33;100197.23;1765325;79;21050;-66
2023/05/30 03:23:08;;;;;;;18.77;4.30;;;;;;;5.44;65.40;100193.55;1759520;79;21026;-66
2023/05/30 03:25:35;;;;;;;10.80;4.80;;;;;;;5.55;65.41;100198.09;1763383;80;21021;-66
2023/05/30 03:28:05;;;;;;;10.93;3.83;;;;;;;5.61;65.44;100197.11;1759851;79;21039;-66
2023/05/30 03:30:29;;;;;;;11.90;4.95;;;;;;;5.68;65.53;100203.02;1759084;79;21575;-66
2023/05/30 03:32:57;;;;;;;12.10;4.45;;;;;;;5.77;65.55;100206.71;1756891;79;21010;-66
2023/05/30 03:35:23;;;;;;;7.25;3.60;;;;;;;5.87;65.64;100206.95;1755985;79;21569;-65
2023/05/30 03:37:50;;;;;;;14.80;4.80;;;;;;;6.01;65.82;100203.66;1736164;79;21044;-65
2023/05/30 03:40:17;;;;;;;16.25;6.30;;;;;;;6.17;65.91;100205.95;1725533;80;21521;-66
2023/05/30 03:42:44;;;;;;;19.80;5.40;;;;;;;6.29;65.93;100195.30;1728140;80;20993;-65
2023/05/30 03:45:11;;;;;;;13.30;5.05;;;;;;;6.42;65.95;100200.63;1739630;80;20922;-65
2023/05/30 03:47:37;;;;;;;12.60;5.08;;;;;;;6.55;66.03;100208.12;1730099;80;20951;-66
2023/05/30 03:50:05;;;;;;;14.03;4.78;;;;;;;6.66;65.93;100211.31;1731989;80;21009;-64
2023/05/30 03:52:31;;;;;;;16.32;4.80;;;;;;;6.75;66.01;100211.13;1724644;80;21025;-66
2023/05/30 03:54:57;;;;;;;13.83;6.08;;;;;;;6.89;66.09;100209.05;1727705;80;20923;-66
2023/05/30 03:57:23;;;;;;;8.65;4.50;;;;;;;7.00;66.19;100210.50;1728272;79;21465;-66
2023/05/30 03:59:50;;;;;;;11.70;4.20;;;;;;;7.10;66.24;100209.39;1723629;80;21093;-66
2023/05/30 04:02:16;;;;;;;17.23;5.47;;;;;;;7.22;66.37;100214.27;1727402;80;21038;-66
2023/05/30 04:04:42;;;;;;;14.45;5.47;;;;;;;7.33;66.45;100216.59;1731301;80;21082;-66
2023/05/30 04:07:09;;;;;;;10.25;4.12;;;;;;;7.40;66.39;100216.41;1720555;80;21068;-66
2023/05/30 04:09:35;;;;;;;13.93;5.33;;;;;;;7.52;66.48;100210.02;1731297;80;21510;-66
2023/05/30 04:12:01;;;;;;;13.72;4.47;;;;;;;7.61;66.47;100208.91;1733661;80;20938;-66
2023/05/30 04:14:27;;;;;;;10.98;3.35;;;;;;;7.70;66.50;100211.28;1726320;80;21058;-65
2023/05/30 04:16:54;;;;;;;17.85;4.00;;;;;;;7.77;66.67;100210.20;1723796;80;21028;-63
2023/05/30 04:19:20;;;;;;;8.30;3.42;;;;;;;7.87;66.80;100213.83;1723398;80;20994;-66
2023/05/30 04:21:46;;;;;;;14.95;3.83;;;;;;;8.02;67.04;100217.31;1716058;82;21003;-67
2023/05/30 04:24:14;;;;;;;16.15;4.58;;;;;;;8.16;67.04;100217.76;1716098;81;20927;-66
2023/05/30 04:26:40;;;;;;;;;;;;;;;8.37;67.34;100219.31;1720650;82;21006;-67
2023/05/30 04:29:08;;;;;;;11.22;4.00;;;;;;;8.55;67.69;100216.19;1734356;80;20130;-66
2023/05/30 04:31:34;;;;;;;9.83;3.65;;;;;;;8.76;67.52;100215.95;1723921;80;20993;-66
2023/05/30 04:34:03;;;;;;;13.45;3.95;;;;;;;8.98;67.58;100217.87;1724368;80;20994;-67
2023/05/30 04:36:36;;;;;;;14.45;3.47;;;;;;;9.17;67.59;100213.30;1724950;80;21421;-67
2023/05/30 04:39:02;;;;;;;20.37;3.75;;;;;;;9.42;67.74;100213.77;1726556;80;21026;-66
2023/05/30 04:41:28;;;;;;;8.68;3.00;;;;;;;9.68;67.88;100213.30;1714867;81;20986;-67
2023/05/30 04:43:57;;;;;;;10.93;2.60;;;;;;;9.89;67.92;100208.62;1701056;82;21011;-66
2023/05/30 04:46:23;;;;;;;18.82;3.75;;;;;;;10.12;68.02;100214.75;1701036;82;21052;-69
2023/05/30 04:48:55;;;;;;;8.70;2.67;;;;;;;10.35;67.96;100212.14;1711965;81;20962;-69
2023/05/30 04:51:25;;;;;;;13.43;3.05;;;;;;;10.58;67.88;100207.78;1721506;80;20998;-68
2023/05/30 04:53:52;;;;;;;16.65;4.28;;;;;;;10.77;67.96;100207.91;1705410;82;20939;-66
2023/05/30 04:56:22;;;;;;;13.47;2.77;;;;;;;10.97;67.95;100210.08;1700795;82;21348;-68
2023/05/30 04:58:55;;;;;;;15.63;4.15;;;;;;;11.16;67.92;100210.64;1699020;82;21108;-68
2023/05/30 05:01:20;;;;;;;15.50;3.52;;;;;;;11.36;67.86;100215.86;1705100;82;21470;-68
2023/05/30 05:03:46;;;;;;;;;;;;;;;11.56;67.86;100208.93;1716337;81;20982;-68
2023/05/30 05:06:13;;;;;;;25.97;4.00;;;;;;;11.72;67.96;100209.13;1701595;82;20151;-68
2023/05/30 05:08:39;;;;;;;32.17;5.10;;;;;;;11.93;67.82;100215.18;1703988;82;20919;-67
2023/05/30 05:11:07;;;;;;;28.87;5.45;;;;;;;12.06;67.70;100218.95;1706638;82;20987;-68
2023/05/30 05:13:34;;;;;;;19.55;3.05;;;;;;;12.21;67.53;100220.00;1708508;82;21051;-68
2023/05/30 05:16:01;;;;;;;14.95;4.05;;;;;;;12.30;67.49;100223.06;1721655;80;20990;-67
2023/05/30 05:18:29;;;;;;;16.12;3.77;;;;;;;12.43;67.50;100218.55;1710699;81;21049;-67
2023/05/30 05:20:55;;;;;;;9.75;2.77;;;;;;;12.59;67.47;100215.60;1732206;81;21081;-66
2023/05/30 05:23:23;;;;;;;9.63;3.30;;;;;;;12.75;67.54;100213.95;1727593;81;21646;-68
2023/05/30 05:25:49;;;;;;;9.75;2.22;;;;;;;12.95;67.49;100217.38;1700666;82;21698;-70
2023/05/30 05:28:15;;;;;;;9.35;3.20;;;;;;;13.13;67.35;100213.82;1704684;82;21521;-70
2023/05/30 05:30:42;;;;;;;8.00;2.75;;;;;;;13.34;67.35;100216.34;1701142;82;21009;-70
2023/05/30 05:33:10;;;;;;;6.35;2.42;;;;;;;13.54;67.13;100220.56;1704947;82;20998;-69
2023/05/30 05:35:36;;;;;;;7.92;2.47;;;;;;;13.70;66.93;100216.69;1720435;81;21025;-70
2023/05/30 05:38:02;;;;;;;25.35;3.52;;;;;;;13.84;66.79;100220.75;1703891;82;21560;-70
2023/05/30 05:40:30;;;;;;;8.13;2.55;;;;;;;14.03;66.55;100221.47;1706273;82;21068;-70
2023/05/30 05:42:56;;;;;;;7.75;2.27;;;;;;;14.17;66.44;100217.23;1702396;82;21046;-70
2023/05/30 05:45:22;;;;;;;104.97;6.25;;;;;;;14.33;66.32;100227.28;1754726;80;20946;-62
2023/05/30 05:47:49;;;;;;;8.73;1.98;;;;;;;14.48;66.26;100230.40;1759917;80;21048;-62
2023/05/30 05:50:15;;;;;;;6.65;2.50;;;;;;;14.65;65.97;100224.23;1749844;80;21041;-62
2023/05/30 05:52:41;;;;;;;6.72;2.25;;;;;;;14.80;65.75;100226.45;1749198;80;21095;-62
2023/05/30 05:55:08;;;;;;;4.50;1.40;;;;;;;14.96;65.37;100230.38;1752353;79;21064;-62
2023/05/30 05:57:34;;;;;;;5.10;1.67;;;;;;;15.11;65.40;100234.74;1758878;79;21040;-62
2023/05/30 06:00:01;;;;;;;7.42;2.27;;;;;;;15.26;65.12;100238.25;1755951;79;21145;-63
2023/05/30 06:02:27;;;;;;;8.18;1.82;;;;;;;15.42;65.20;100243.00;1728257;81;21054;-63
2023/05/30 06:04:54;;;;;;;3.62;1.40;;;;;;;15.63;64.91;100246.63;1717843;81;21014;-62
2023/05/30 06:07:20;;;;;;;6.63;1.53;;;;;;;15.79;64.65;100250.52;1750390;79;20999;-62
2023/05/30 06:09:47;;;;;;;13.57;2.20;;;;;;;15.96;64.36;100250.33;1759643;79;20994;-62
2023/05/30 06:12:13;;;;;;;5.90;1.80;;;;;;;16.17;64.01;100250.81;1754029;79;21072;-62
2023/05/30 06:14:39;;;;;;;6.15;1.55;;;;;;;16.32;63.60;100256.42;1757839;79;21020;-62
2023/05/30 06:17:07;;;;;;;10.30;2.20;;;;;;;16.46;62.82;100249.45;1756641;78;20959;-62
2023/05/30 06:19:34;;;;;;;6.15;1.65;;;;;;;16.58;62.43;100256.59;1759180;79;20950;-63
2023/05/30 06:22:00;;;;;;;9.78;1.72;;;;;;;16.66;61.78;100256.92;1757272;80;21026;-63
2023/05/30 06:24:26;;;;;;;4.45;1.67;;;;;;;16.81;61.81;100254.31;1757213;80;21028;-62
2023/05/30 06:26:53;;;;;;;9.58;1.85;;;;;;;17.01;61.63;100259.12;1756502;79;21014;-62
2023/05/30 06:29:19;;;;;;;3.52;1.57;;;;;;;17.22;60.94;100260.36;1758012;80;21013;-62
2023/05/30 06:31:46;;;;;;;4.17;1.40;;;;;;;17.45;60.54;100255.33;1754185;80;21056;-62
2023/05/30 06:34:12;;;;;;;6.85;1.90;;;;;;;17.58;59.17;100253.53;1756956;79;21085;-63
2023/05/30 06:36:38;;;;;;;7.33;2.25;;;;;;;17.71;59.03;100252.71;1758120;79;21072;-64
2023/05/30 06:39:05;;;;;;;5.08;1.25;;;;;;;17.96;59.39;100247.45;1759515;80;21541;-63
2023/05/30 06:41:34;;;;;;;4.40;1.62;;;;;;;18.22;59.17;100250.06;1767796;79;20976;-62
2023/05/30 06:44:01;;;;;;;5.25;1.60;;;;;;;18.56;58.57;100253.78;1763741;79;21522;-61
2023/05/30 06:46:27;;;;;;;13.75;2.83;;;;;;;19.01;57.99;100252.24;1760714;79;21426;-60
2023/05/30 06:48:53;;;;;;;4.60;1.35;;;;;;;19.44;57.86;100254.34;1759147;79;21071;-64
2023/05/30 06:51:20;;;;;;;3.05;1.10;;;;;;;19.93;57.66;100250.23;1759322;79;21035;-61
2023/05/30 06:53:46;;;;;;;16.42;2.45;;;;;;;20.40;56.87;100254.44;1762306;79;21100;-61
2023/05/30 06:56:12;;;;;;;6.47;1.80;;;;;;;21.03;57.25;100254.66;1761668;79;21062;-62
2023/05/30 06:58:39;;;;;;;42.75;6.00;;;;;;;22.03;55.84;100251.08;1764113;79;21052;-62
2023/05/30 07:01:05;;;;;;;9.83;2.75;;;;;;;22.85;55.59;100248.73;1761552;79;21034;-62
2023/05/30 07:03:32;;;;;;;3.67;1.40;;;;;;;23.46;54.27;100249.80;1760609;79;21034;-62
2023/05/30 07:06:00;;;;;;;4.85;1.42;;;;;;;24.29;54.76;100246.00;1724564;81;21092;-62
2023/05/30 07:08:26;;;;;;;2.90;1.22;;;;;;;25.49;54.69;100245.36;1726319;81;21518;-62
2023/05/30 07:10:53;;;;;;;1.87;1.10;;;;;;;26.86;53.40;100245.34;1760872;79;20929;-62
2023/05/30 07:13:19;;;;;;;4.47;1.20;;;;;;;27.86;52.08;100241.48;1761927;79;21033;-62
2023/05/30 07:15:46;;;;;;;14.10;1.60;;;;;;;29.03;52.17;100245.66;1765859;80;21038;-62
2023/05/30 07:18:13;;;;;;;6.83;1.65;;;;;;;30.25;50.87;100249.03;1759102;79;21109;-61
2023/05/30 07:20:39;;;;;;;12.07;1.70;;;;;;;31.69;49.23;100247.66;1761960;79;21018;-62
2023/05/30 07:23:06;;;;;;;4.05;1.55;;;;;;;32.76;48.18;100241.73;1768372;79;21107;-62
2023/05/30 07:25:32;;;;;;;538.27;38.63;;;;;;;33.65;46.49;100251.41;1767755;79;20942;-62
2023/05/30 07:27:59;;;;;;;7.12;1.75;;;;;;;34.47;45.99;100253.14;1760585;79;20955;-62
2023/05/30 07:30:25;;;;;;;;;;;;;;;35.16;43.60;100252.05;1756704;79;20988;-62
2023/05/30 07:32:51;;;;;;;5.72;1.37;;;;;;;35.71;41.93;100251.35;1758484;79;20127;-62
2023/05/30 07:35:17;;;;;;;5.97;1.42;;;;;;;36.73;42.07;100247.00;1762681;79;21022;-62
2023/05/30 07:37:44;;;;;;;171.37;17.20;;;;;;;37.58;40.71;100251.86;1757949;79;21636;-61
2023/05/30 07:40:12;;;;;;;5.78;1.90;;;;;;;38.28;40.05;100253.11;1751819;79;21006;-61
2023/05/30 07:42:38;;;;;;;9.80;2.40;;;;;;;39.36;37.43;100258.66;1757952;80;21482;-62
2023/05/30 07:45:06;;;;;;;6.58;1.60;;;;;;;39.68;36.50;100263.48;1755114;80;20998;-62
2023/05/30 07:47:32;;;;;;;5.10;1.35;;;;;;;39.82;34.92;100264.81;1756081;80;20979;-62
2023/05/30 07:49:58;;;;;;;30.57;2.90;;;;;;;39.79;33.69;100268.05;1755085;80;21095;-62
2023/05/30 07:52:25;;;;;;;5.00;1.67;;;;;;;40.01;32.90;100264.52;1752578;80;21092;-62
2023/05/30 07:54:51;;;;;;;3.45;1.17;;;;;;;40.48;31.72;100269.48;1754838;79;21624;-63
2023/05/30 07:57:18;;;;;;;9.80;1.60;;;;;;;39.91;30.04;100262.46;1751628;80;21042;-62
2023/05/30 07:59:44;;;;;;;3.70;1.42;;;;;;;38.98;30.07;100269.47;1753218;80;21020;-62
2023/05/30 08:02:11;;;;;;;40.30;6.40;;;;;;;40.18;28.53;100263.91;1755195;80;20982;-62
2023/05/30 08:04:38;;;;;;;7.50;1.75;;;;;;;40.32;27.75;100262.19;1758793;80;21069;-65
2023/05/30 08:07:05;;;;;;;22.65;3.95;;;;;;;40.58;26.43;100259.99;1749504;79;21370;-64
2023/05/30 08:09:32;;;;;;;4.05;1.30;;;;;;;41.08;26.25;100264.90;1747730;80;21042;-64
2023/05/30 08:12:02;;;;;;;12.82;3.65;;;;;;;41.42;25.36;100257.20;1757641;80;21010;-64
2023/05/30 08:14:27;;;;;;;14.87;2.92;;;;;;;41.98;24.92;100262.23;1754295;79;21037;-63
2023/05/30 08:16:55;;;;;;;10.32;2.60;;;;;;;43.01;24.20;100266.09;1753725;80;20997;-65
2023/05/30 08:19:22;;;;;;;7.25;1.82;;;;;;;43.30;23.03;100276.84;1756980;80;21567;-64
2023/05/30 08:21:49;;;;;;;5.80;1.72;;;;;;;43.07;22.73;100267.73;1754413;79;21052;-64
2023/05/30 08:24:15;;;;;;;6.40;1.72;;;;;;;43.06;21.99;100277.09;1716235;82;21609;-65
2023/05/30 08:26:45;;;;;;;8.55;1.27;;;;;;;42.90;21.32;100277.06;1701706;83;21053;-65
2023/05/30 08:29:12;;;;;;;17.98;2.87;;;;;;;41.41;20.54;100273.92;1722415;81;21121;-65
2023/05/30 08:31:38;;;;;;;25.52;3.17;;;;;;;39.29;19.93;100276.26;1720802;81;21040;-66
2023/05/30 08:34:05;;;;;;;2.45;1.25;;;;;;;39.56;20.28;100279.17;1759220;79;21417;-65
2023/05/30 08:36:32;;;;;;;2.77;1.30;;;;;;;40.22;19.45;100285.61;1753900;80;21544;-63
2023/05/30 08:39:01;;;;;;;7.42;1.50;;;;;;;40.58;19.45;100287.36;1741294;80;21036;-65
2023/05/30 08:41:27;;;;;;;12.65;1.70;;;;;;;41.60;18.52;100280.66;1707946;82;21041;-65
2023/05/30 08:43:54;;;;;;;6.70;1.35;;;;;;;42.53;18.71;100281.94;1704046;81;22241;-63
2023/05/30 08:46:20;;;;;;;4.12;1.35;;;;;;;43.30;18.41;100285.08;1712868;82;21614;-64
2023/05/30 08:48:48;;;;;;;6.33;1.70;;;;;;;43.95;18.12;100283.88;1714707;82;21007;-65
2023/05/30 08:51:17;;;;;;;5.05;1.47;;;;;;;44.47;17.45;100289.98;1698962;82;21484;-65
2023/05/30 08:53:50;;;;;;;7.35;1.85;;;;;;;44.71;17.14;100292.05;1704233;82;21145;-65
2023/05/30 08:56:22;;;;;;;8.23;1.70;;;;;;;45.10;17.04;100297.00;1703856;82;20972;-65
2023/05/30 08:58:50;;;;;;;7.20;1.45;;;;;;;45.11;16.29;100301.95;1717079;81;21037;-65
2023/05/30 09:01:18;;;;;;;290.75;28.57;;;;;;;43.44;16.30;100307.86;1705855;81;21022;-65
2023/05/30 09:03:47;;;;;;;45.73;5.37;;;;;;;44.20;16.15;100307.72;1718392;82;21025;-64
2023/05/30 09:06:13;;;;;;;199.55;27.02;;;;;;;44.38;15.92;100316.47;1715419;82;21022;-62
2023/05/30 09:08:45;;;;;;;6.15;2.10;;;;;;;44.78;15.45;100310.47;1715687;81;20997;-64
2023/05/30 09:11:13;;;;;;;4.95;1.50;;;;;;;43.98;14.79;100308.63;1704458;82;21478;-64
2023/05/30 09:13:41;;;;;;;3.47;1.27;;;;;;;42.78;15.10;100312.77;1711339;81;20974;-64
2023/05/30 09:16:08;;;;;;;8.10;2.35;;;;;;;43.21;14.95;100318.31;1700689;82;21011;-64
2023/05/30 09:18:36;;;;;;;10.30;2.20;;;;;;;43.82;14.68;100311.13;1702613;82;21100;-63
2023/05/30 09:21:05;;;;;;;12.40;1.90;;;;;;;44.53;14.55;100308.67;1693248;81;21540;-64
2023/05/30 09:23:32;;;;;;;7.08;1.50;;;;;;;45.02;14.36;100307.82;1713951;81;21555;-64
2023/05/30 09:26:04;;;;;;;146.75;10.63;;;;;;;45.52;14.24;100304.41;1720349;81;21461;-64
2023/05/30 09:28:28;;;;;;;24.63;3.25;;;;;;;45.63;14.09;100303.70;1712479;81;21071;-64
2023/05/30 09:30:57;;;;;;;14.38;1.98;;;;;;;46.31;13.87;100304.89;1716934;81;21030;-64
2023/05/30 09:33:26;;;;;;;22.25;2.70;;;;;;;46.83;13.70;100297.53;1705242;82;21102;-61
2023/05/30 09:35:53;;;;;;;10.82;1.77;;;;;;;47.35;13.28;100302.20;1709097;82;21043;-62
2023/05/30 09:38:22;;;;;;;6.42;1.95;;;;;;;46.70;12.99;100296.91;1713298;82;21085;-61
2023/05/30 09:40:52;;;;;;;6.42;1.72;;;;;;;46.77;13.08;100301.47;1727918;81;21057;-60
2023/05/30 09:43:34;;;;;;;6.90;1.80;;;;;;;46.10;13.06;100308.99;1724375;81;21078;-61
2023/05/30 09:46:05;;;;;;;9.85;1.77;;;;;;;46.71;12.95;100310.97;1731906;81;20954;-61
2023/05/30 09:48:32;;;;;;;8.38;1.80;;;;;;;47.14;12.64;100317.78;1724326;81;20978;-61
2023/05/30 09:51:02;;;;;;;4.80;1.55;;;;;;;46.98;12.18;100317.75;1727796;81;21026;-60
2023/05/30 09:53:30;;;;;;;14.00;2.22;;;;;;;46.86;12.45;100313.50;1724157;81;21498;-61
2023/05/30 09:55:57;;;;;;;3.77;1.37;;;;;;;47.08;12.21;100321.73;1734777;81;21436;-61
2023/05/30 09:58:24;;;;;;;3.20;1.90;;;;;;;46.85;12.03;100320.13;1730043;81;21062;-61
2023/05/30 10:00:52;;;;;;;5.25;1.50;;;;;;;46.48;12.30;100306.32;1730214;81;21089;-61
2023/05/30 10:03:42;;;;;;;10.58;1.67;;;;;;;46.85;11.90;100309.08;1729360;81;21040;-61
2023/05/30 10:06:16;;;;;;;7.22;1.77;;;;;;;47.14;12.15;100305.34;1733027;81;21495;-61
2023/05/30 10:08:44;;;;;;;8.60;2.03;;;;;;;48.19;11.94;100311.12;1721166;81;21067;-61
2023/05/30 10:11:12;;;;;;;8.45;2.17;;;;;;;47.52;11.33;100308.00;1729106;81;21608;-61
2023/05/30 10:13:39;;;;;;;4.90;1.60;;;;;;;45.46;11.59;100306.36;1725415;81;21725;-61
2023/05/30 10:16:09;;;;;;;4.58;1.72;;;;;;;44.71;11.48;100308.02;1726598;81;20951;-61
2023/05/30 10:18:39;;;;;;;9.88;1.75;;;;;;;41.40;11.18;100312.84;1729919;80;21508;-60
2023/05/30 10:21:10;;;;;;;5.25;1.50;;;;;;;38.21;11.84;100319.78;1727606;81;21011;-61
2023/05/30 10:23:37;;;;;;;6.15;1.62;;;;;;;37.11;12.44;100321.20;1728670;81;21013;-59
2023/05/30 10:26:09;;;;;;;9.38;1.25;;;;;;;36.55;12.48;100320.48;1723470;81;21032;-59
2023/05/30 10:29:00;;;;;;;4.65;1.40;;;;;;;36.11;13.14;100322.45;1719373;81;21081;-59
2023/05/30 10:31:18;;;;;;;2.85;1.20;;;;;;;38.14;13.32;100319.07;1723745;81;21005;-59
2023/05/30 10:33:52;;;;;;;6.40;1.50;;;;;;;37.69;12.54;100306.05;1715228;81;21026;-60
2023/05/30 10:36:30;;;;;;;12.90;2.20;;;;;;;36.00;12.86;100309.58;1657503;83;21085;-59
2023/05/30 10:38:59;;;;;;;11.63;2.27;;;;;;;34.89;13.81;100311.87;1714408;81;21077;-60
2023/05/30 10:41:39;;;;;;;3.75;1.40;;;;;;;34.80;14.24;100317.26;1709728;82;21021;-60
2023/05/30 10:44:16;;;;;;;3.77;1.20;;;;;;;34.99;14.00;100319.55;1716255;82;21151;-61
2023/05/30 10:46:57;;;;;;;4.97;1.22;;;;;;;33.96;14.17;100323.02;1713658;82;21064;-61
2023/05/30 10:49:30;;;;;;;3.05;1.45;;;;;;;33.31;14.55;100319.28;1710374;82;22286;-61
2023/05/30 10:52:07;;;;;;;3.05;1.60;;;;;;;33.83;15.05;100323.03;1693398;82;21073;-60
2023/05/30 10:54:37;;;;;;;4.37;1.40;;;;;;;32.99;14.72;100318.97;1715359;82;21033;-62
2023/05/30 10:57:30;;;;;;;4.90;1.20;;;;;;;31.84;15.16;100315.88;1711911;82;20970;-62
2023/05/30 11:00:09;;;;;;;3.85;1.22;;;;;;;30.97;15.49;100316.94;1714773;82;20998;-62
2023/05/30 11:02:35;;;;;;;14.05;1.60;;;;;;;29.82;15.90;100322.00;1712656;82;21102;-61
2023/05/30 11:05:10;;;;;;;4.95;1.15;;;;;;;28.80;16.32;100321.38;1711619;82;21017;-62
2023/05/30 11:07:38;;;;;;;16.20;2.00;;;;;;;28.11;16.67;100324.63;1709492;82;21501;-62
2023/05/30 11:10:10;;;;;;;7.70;1.50;;;;;;;27.43;17.16;100326.69;1710316;81;20963;-61
2023/05/30 11:12:43;;;;;;;12.90;2.37;;;;;;;26.90;17.66;100327.92;1709319;81;21485;-62
2023/05/30 11:15:15;;;;;;;7.42;1.65;;;;;;;26.42;17.97;100321.36;1713189;81;21089;-61
2023/05/30 11:17:46;;;;;;;6.28;1.42;;;;;;;25.95;18.40;100321.77;1711925;81;22313;-62
2023/05/30 11:20:16;;;;;;;5.75;2.10;;;;;;;25.52;18.79;100333.30;1712842;81;20999;-60
2023/05/30 11:23:04;;;;;;;4.03;2.10;;;;;;;26.39;19.14;100332.90;1719804;82;21092;-61
2023/05/30 11:25:33;;;;;;;4.42;1.62;;;;;;;26.18;19.62;100330.59;1703392;83;20987;-61
2023/05/30 11:28:02;;;;;;;5.42;2.10;;;;;;;26.59;20.05;100335.69;1714795;81;21069;-63